createdAt,value
2018-08-18T00:01:25.920Z,22.00
2018-08-18T00:03:53.300Z,22.10
2018-08-18T00:06:20.664Z,22.10
2018-08-18T00:08:48.045Z,22.00
2018-08-18T00:11:15.421Z,22.00
2018-08-18T00:13:52.586Z,22.10
2018-08-18T00:16:25.188Z,22.10
2018-08-18T00:18:55.808Z,22.00
2018-08-18T00:21:23.143Z,22.00
2018-08-18T00:24:05.368Z,22.00
2018-08-18T00:26:32.663Z,22.00
2018-08-18T00:29:00.208Z,22.00
2018-08-18T00:31:27.817Z,22.00
2018-08-18T00:33:55.332Z,22.00
2018-08-18T00:36:22.685Z,21.90
2018-08-18T00:38:50.022Z,21.90
2018-08-18T00:41:17.475Z,21.80
2018-08-18T00:43:46.024Z,21.80
2018-08-18T00:46:13.413Z,21.70
2018-08-18T00:48:40.696Z,21.60
2018-08-18T00:51:08.017Z,21.60
2018-08-18T00:53:35.359Z,21.50
2018-08-18T00:56:03.861Z,21.50
2018-08-18T00:58:31.224Z,21.50
2018-08-18T01:01:05.479Z,21.40
2018-08-18T01:03:40.312Z,21.40
2018-08-18T01:06:16.670Z,21.30
2018-08-18T01:08:44.009Z,21.30
2018-08-18T01:11:11.879Z,21.20
2018-08-18T01:13:39.204Z,21.20
2018-08-18T01:16:06.528Z,21.20
2018-08-18T01:18:33.922Z,21.20
2018-08-18T01:21:01.273Z,21.10
2018-08-18T01:23:28.602Z,21.00
2018-08-18T01:25:55.896Z,20.90
2018-08-18T01:28:23.213Z,20.80
2018-08-18T01:31:24.106Z,20.80
2018-08-18T01:33:51.505Z,20.70
2018-08-18T01:36:18.809Z,20.70
2018-08-18T01:38:46.103Z,20.60
2018-08-18T01:41:18.106Z,20.50
2018-08-18T01:43:46.503Z,20.50
2018-08-18T01:46:16.465Z,20.40
2018-08-18T01:48:45.109Z,20.50
2018-08-18T01:51:17.674Z,20.50
2018-08-18T01:53:46.686Z,20.40
2018-08-18T01:56:14.110Z,20.30
2018-08-18T01:58:41.474Z,20.30
2018-08-18T02:01:09.062Z,20.20
2018-08-18T02:03:36.395Z,20.20
2018-08-18T02:06:03.863Z,20.20
2018-08-18T02:08:37.111Z,20.10
2018-08-18T02:11:04.499Z,20.10
2018-08-18T02:13:31.817Z,20.10
2018-08-18T02:15:59.167Z,20.00
2018-08-18T02:18:26.494Z,19.90
2018-08-18T02:20:53.846Z,19.90
2018-08-18T02:23:21.172Z,19.90
2018-08-18T02:25:48.522Z,19.90
2018-08-18T02:28:25.741Z,19.80
2018-08-18T02:30:53.093Z,19.70
2018-08-18T02:33:20.409Z,19.80
2018-08-18T02:35:47.782Z,19.70
2018-08-18T02:38:15.122Z,19.70
2018-08-18T02:40:42.496Z,19.70
2018-08-18T02:43:22.485Z,19.70
2018-08-18T02:45:49.869Z,19.70
2018-08-18T02:48:18.865Z,19.70
2018-08-18T02:50:50.397Z,19.70
2018-08-18T02:53:25.157Z,19.80
2018-08-18T02:55:53.053Z,19.70
2018-08-18T02:58:20.393Z,19.70
2018-08-18T03:00:47.795Z,19.70
2018-08-18T03:03:15.358Z,19.70
2018-08-18T03:05:42.693Z,19.70
2018-08-18T03:08:10.335Z,19.70
2018-08-18T03:10:37.781Z,19.70
2018-08-18T03:13:05.121Z,19.70
2018-08-18T03:15:55.719Z,19.60
2018-08-18T03:18:30.545Z,19.60
2018-08-18T03:20:58.454Z,19.50
2018-08-18T03:23:25.825Z,19.50
2018-08-18T03:25:53.173Z,19.50
2018-08-18T03:28:20.509Z,19.40
2018-08-18T03:30:47.833Z,19.40
2018-08-18T03:33:15.181Z,19.40
2018-08-18T03:35:42.572Z,19.40
2018-08-18T03:38:09.967Z,19.30
2018-08-18T03:40:37.278Z,19.30
2018-08-18T03:43:04.821Z,19.20
2018-08-18T03:45:33.797Z,19.20
2018-08-18T03:48:01.149Z,19.20
2018-08-18T03:50:48.410Z,19.10
2018-08-18T03:53:17.627Z,19.10
2018-08-18T03:55:44.993Z,19.00
2018-08-18T03:58:12.375Z,19.00
2018-08-18T04:00:40.301Z,18.90
2018-08-18T04:03:07.662Z,19.00
2018-08-18T04:05:34.994Z,18.90
2018-08-18T04:08:02.341Z,19.00
2018-08-18T04:10:29.866Z,18.90
2018-08-18T04:12:57.783Z,18.90
2018-08-18T04:15:25.121Z,18.80
2018-08-18T04:17:52.449Z,18.80
2018-08-18T04:20:19.760Z,18.80
2018-08-18T04:22:47.098Z,18.80
2018-08-18T04:25:14.468Z,18.70
2018-08-18T04:27:43.944Z,18.60
2018-08-18T04:30:13.454Z,18.60
2018-08-18T04:33:05.142Z,18.60
2018-08-18T04:35:33.069Z,18.50
2018-08-18T04:38:01.443Z,18.50
2018-08-18T04:40:28.799Z,18.40
2018-08-18T04:42:57.267Z,18.40
2018-08-18T04:45:24.649Z,18.40
2018-08-18T04:47:52.073Z,18.30
2018-08-18T04:50:20.479Z,18.40
2018-08-18T04:52:47.813Z,18.40
2018-08-18T04:55:15.642Z,18.40
2018-08-18T04:57:43.305Z,18.30
2018-08-18T05:00:12.394Z,18.30
2018-08-18T05:02:45.319Z,18.40
2018-08-18T05:05:13.064Z,18.50
2018-08-18T05:07:50.154Z,18.60
2018-08-18T05:10:19.179Z,18.80
2018-08-18T05:12:46.501Z,18.90
2018-08-18T05:15:14.443Z,19.80
2018-08-18T05:17:41.815Z,21.20
2018-08-18T05:20:15.521Z,22.10
2018-08-18T05:22:43.557Z,21.90
2018-08-18T05:25:10.900Z,22.00
2018-08-18T05:27:38.274Z,22.60
2018-08-18T05:30:05.870Z,22.30
2018-08-18T05:32:33.457Z,22.70
2018-08-18T05:35:00.837Z,23.10
2018-08-18T05:37:28.153Z,22.40
2018-08-18T05:39:55.546Z,21.70
2018-08-18T05:42:22.955Z,21.30
2018-08-18T05:44:50.512Z,21.00
2018-08-18T05:47:17.906Z,20.80
2018-08-18T05:49:45.251Z,20.60
2018-08-18T05:52:12.634Z,20.50
2018-08-18T05:54:39.954Z,20.30
2018-08-18T05:57:07.387Z,20.20
2018-08-18T05:59:34.976Z,20.00
2018-08-18T06:02:02.354Z,20.00
2018-08-18T06:04:29.676Z,19.90
2018-08-18T06:06:57.013Z,19.80
2018-08-18T06:09:24.337Z,19.90
2018-08-18T06:11:51.728Z,19.90
2018-08-18T06:14:19.427Z,19.90
2018-08-18T06:16:47.422Z,19.80
2018-08-18T06:19:14.814Z,19.80
2018-08-18T06:21:42.181Z,19.80
2018-08-18T06:24:09.850Z,19.80
2018-08-18T06:26:37.201Z,19.70
2018-08-18T06:29:04.633Z,19.70
2018-08-18T06:31:32.033Z,19.70
2018-08-18T06:33:59.417Z,19.70
2018-08-18T06:36:26.769Z,19.70
2018-08-18T06:38:54.186Z,19.70
2018-08-18T06:41:21.627Z,19.70
2018-08-18T06:43:48.941Z,19.70
2018-08-18T06:46:16.288Z,19.80
2018-08-18T06:48:43.658Z,19.80
2018-08-18T06:51:11.033Z,19.80
2018-08-18T06:53:44.493Z,19.90
2018-08-18T06:56:11.830Z,19.90
2018-08-18T06:58:39.162Z,20.00
2018-08-18T07:01:07.017Z,20.00
2018-08-18T07:03:45.444Z,20.00
2018-08-18T07:06:13.581Z,20.20
2018-08-18T07:08:46.584Z,20.30
2018-08-18T07:11:13.927Z,20.30
2018-08-18T07:13:41.854Z,20.30
2018-08-18T07:16:09.246Z,20.40
2018-08-18T07:18:36.698Z,20.50
2018-08-18T07:21:04.053Z,20.50
2018-08-18T07:23:31.390Z,20.60
2018-08-18T07:25:59.896Z,20.60
2018-08-18T07:28:27.519Z,20.70
2018-08-18T07:30:54.935Z,20.80
2018-08-18T07:33:22.358Z,20.80
2018-08-18T07:35:49.751Z,20.80
2018-08-18T07:38:17.297Z,20.90
2018-08-18T07:40:48.711Z,20.90
2018-08-18T07:43:20.826Z,20.90
2018-08-18T07:45:48.922Z,21.00
2018-08-18T07:48:16.360Z,21.00
2018-08-18T07:50:44.041Z,21.10
2018-08-18T07:53:11.475Z,21.20
2018-08-18T07:55:38.737Z,21.20
2018-08-18T07:58:15.409Z,21.30
2018-08-18T08:00:42.923Z,21.40
2018-08-18T08:03:11.374Z,21.40
2018-08-18T08:05:38.804Z,21.40
2018-08-18T08:08:06.419Z,21.40
2018-08-18T08:10:33.774Z,21.50
2018-08-18T08:13:01.168Z,21.50
2018-08-18T08:15:28.535Z,21.50
2018-08-18T08:17:55.929Z,21.70
2018-08-18T08:20:23.371Z,21.70
2018-08-18T08:22:51.519Z,21.80
2018-08-18T08:25:19.051Z,21.90
2018-08-18T08:27:47.773Z,22.00
2018-08-18T08:30:16.205Z,22.00
2018-08-18T08:32:43.945Z,22.10
2018-08-18T08:35:11.281Z,22.10
2018-08-18T08:37:38.646Z,22.10
2018-08-18T08:40:10.093Z,22.10
2018-08-18T08:42:37.477Z,22.20
2018-08-18T08:45:06.130Z,22.20
2018-08-18T08:47:33.458Z,22.20
2018-08-18T08:50:01.334Z,22.20
2018-08-18T08:52:33.229Z,22.30
2018-08-18T08:55:00.538Z,22.30
2018-08-18T08:57:27.901Z,22.30
2018-08-18T08:59:55.233Z,22.40
2018-08-18T09:02:22.592Z,22.40
2018-08-18T09:04:49.930Z,22.50
2018-08-18T09:07:17.295Z,22.60
2018-08-18T09:09:44.710Z,22.60
2018-08-18T09:12:12.098Z,22.70
2018-08-18T09:14:39.405Z,22.70
2018-08-18T09:17:06.786Z,22.80
2018-08-18T09:19:34.247Z,22.80
2018-08-18T09:22:02.457Z,22.90
2018-08-18T09:24:31.506Z,22.90
2018-08-18T09:27:02.437Z,22.90
2018-08-18T09:29:35.670Z,22.90
2018-08-18T09:32:03.105Z,23.10
2018-08-18T09:34:36.271Z,23.10
2018-08-18T09:37:05.346Z,23.20
2018-08-18T09:39:33.406Z,23.10
2018-08-18T09:42:02.218Z,23.20
2018-08-18T09:44:31.089Z,23.20
2018-08-18T09:46:58.730Z,23.30
2018-08-18T09:49:26.721Z,23.40
2018-08-18T09:51:54.071Z,23.40
2018-08-18T09:54:21.412Z,23.50
2018-08-18T09:56:48.719Z,23.60
2018-08-18T09:59:16.075Z,23.60
2018-08-18T10:01:43.361Z,23.70
2018-08-18T10:04:10.670Z,23.80
2018-08-18T10:06:38.006Z,23.80
2018-08-18T10:09:06.973Z,23.80
2018-08-18T10:11:34.293Z,23.90
2018-08-18T10:14:01.702Z,23.90
2018-08-18T10:16:29.029Z,24.00
2018-08-18T10:18:57.629Z,24.00
2018-08-18T10:21:24.917Z,24.00
2018-08-18T10:23:52.211Z,24.00
2018-08-18T10:26:19.755Z,24.00
2018-08-18T10:28:47.104Z,24.10
2018-08-18T10:31:14.673Z,24.10
2018-08-18T10:33:42.111Z,24.20
2018-08-18T10:36:09.534Z,24.20
2018-08-18T10:38:36.851Z,24.30
2018-08-18T10:41:04.407Z,24.40
2018-08-18T10:43:32.026Z,24.40
2018-08-18T10:45:59.378Z,24.50
2018-08-18T10:48:26.834Z,24.60
2018-08-18T10:51:31.634Z,24.70
2018-08-18T10:53:59.872Z,24.70
2018-08-18T10:56:27.433Z,24.80
2018-08-18T10:59:12.479Z,24.80
2018-08-18T11:01:55.849Z,24.80
2018-08-18T11:04:23.165Z,24.80
2018-08-18T11:06:50.490Z,24.90
2018-08-18T11:09:17.866Z,24.90
2018-08-18T11:11:45.222Z,25.00
2018-08-18T11:14:12.555Z,25.00
2018-08-18T11:16:39.873Z,25.10
2018-08-18T11:19:07.178Z,25.20
2018-08-18T11:21:34.505Z,25.20
2018-08-18T11:24:06.509Z,25.30
2018-08-18T11:26:37.699Z,25.30
2018-08-18T11:29:12.557Z,25.40
2018-08-18T11:31:40.137Z,25.30
2018-08-18T11:34:07.513Z,25.30
2018-08-18T11:36:34.851Z,25.30
2018-08-18T11:39:03.136Z,25.30
2018-08-18T11:41:31.638Z,25.40
2018-08-18T11:43:58.902Z,25.40
2018-08-18T11:46:26.739Z,25.40
2018-08-18T11:48:54.065Z,25.40
2018-08-18T11:51:22.382Z,25.50
2018-08-18T11:53:58.373Z,25.50
2018-08-18T11:56:25.693Z,25.50
2018-08-18T11:59:11.501Z,25.60
2018-08-18T12:01:39.986Z,25.70
2018-08-18T12:04:07.346Z,25.80
2018-08-18T12:06:36.600Z,25.80
2018-08-18T12:09:04.325Z,25.90
2018-08-18T12:11:31.710Z,25.90
2018-08-18T12:13:59.034Z,26.00
2018-08-18T12:16:26.394Z,26.00
2018-08-18T12:18:54.018Z,26.10
2018-08-18T12:21:21.374Z,26.10
2018-08-18T12:23:48.691Z,26.20
2018-08-18T12:26:17.881Z,26.20
2018-08-18T12:28:48.070Z,26.20
2018-08-18T12:31:17.649Z,26.30
2018-08-18T12:33:45.080Z,26.30
2018-08-18T12:36:12.476Z,26.20
2018-08-18T12:38:44.158Z,26.30
2018-08-18T12:41:11.532Z,26.30
2018-08-18T12:43:40.185Z,26.30
2018-08-18T12:46:08.809Z,26.30
2018-08-18T12:48:37.967Z,26.40
2018-08-18T12:51:06.265Z,26.50
2018-08-18T12:53:39.157Z,26.40
2018-08-18T12:56:06.829Z,26.40
2018-08-18T12:58:34.280Z,26.30
2018-08-18T13:01:01.934Z,26.40
2018-08-18T13:03:29.522Z,26.50
2018-08-18T13:05:56.921Z,26.50
2018-08-18T13:08:24.272Z,26.60
2018-08-18T13:10:52.570Z,27.00
2018-08-18T13:13:19.930Z,27.70
2018-08-18T13:15:49.402Z,28.10
2018-08-18T13:18:16.749Z,28.40
2018-08-18T13:20:44.139Z,28.60
2018-08-18T13:23:11.433Z,28.70
2018-08-18T13:25:38.897Z,28.60
2018-08-18T13:28:06.477Z,28.60
2018-08-18T13:30:33.813Z,28.60
2018-08-18T13:33:01.210Z,28.40
2018-08-18T13:35:28.547Z,28.40
2018-08-18T13:37:56.004Z,28.40
2018-08-18T13:40:24.920Z,28.50
2018-08-18T13:42:52.295Z,28.50
2018-08-18T13:45:27.694Z,28.50
2018-08-18T13:48:05.887Z,28.40
2018-08-18T13:50:33.881Z,28.40
2018-08-18T13:53:01.242Z,28.40
2018-08-18T13:55:34.345Z,28.40
2018-08-18T13:58:01.708Z,28.30
2018-08-18T14:00:29.118Z,28.30
2018-08-18T14:02:56.454Z,28.20
2018-08-18T14:05:28.638Z,28.20
2018-08-18T14:07:59.126Z,28.20
2018-08-18T14:10:26.481Z,28.20
2018-08-18T14:12:54.986Z,28.20
2018-08-18T14:15:22.638Z,28.10
2018-08-18T14:17:57.644Z,28.00
2018-08-18T14:20:25.329Z,27.90
2018-08-18T14:22:57.521Z,27.90
2018-08-18T14:25:25.761Z,27.80
2018-08-18T14:27:58.926Z,27.80
2018-08-18T14:30:26.136Z,27.80
2018-08-18T14:32:53.473Z,27.80
2018-08-18T14:35:20.871Z,27.80
2018-08-18T14:37:48.279Z,27.80
2018-08-18T14:40:16.964Z,27.80
2018-08-18T14:42:45.374Z,27.70
2018-08-18T14:45:15.019Z,27.70
2018-08-18T14:47:42.542Z,27.70
2018-08-18T14:50:17.993Z,27.70
2018-08-18T14:52:45.593Z,27.60
2018-08-18T14:55:13.470Z,27.60
2018-08-18T14:57:46.382Z,27.60
2018-08-18T15:00:13.753Z,27.70
2018-08-18T15:02:41.167Z,27.60
2018-08-18T15:05:08.506Z,27.50
2018-08-18T15:07:40.482Z,27.50
2018-08-18T15:10:07.947Z,27.50
2018-08-18T15:12:35.278Z,27.40
2018-08-18T15:15:02.662Z,27.40
2018-08-18T15:17:30.047Z,27.40
2018-08-18T15:19:57.399Z,27.40
2018-08-18T15:22:24.725Z,27.40
2018-08-18T15:24:52.139Z,27.50
2018-08-18T15:27:19.583Z,27.40
2018-08-18T15:29:46.953Z,27.40
2018-08-18T15:32:14.316Z,27.30
2018-08-18T15:34:41.687Z,27.40
2018-08-18T15:37:09.165Z,27.40
2018-08-18T15:39:36.526Z,27.30
2018-08-18T15:42:03.902Z,27.30
2018-08-18T15:44:31.306Z,27.40
2018-08-18T15:46:58.829Z,27.40
2018-08-18T15:49:26.317Z,27.30
2018-08-18T15:51:54.198Z,27.30
2018-08-18T15:54:22.654Z,27.30
2018-08-18T15:56:49.973Z,27.30
2018-08-18T15:59:17.332Z,27.20
2018-08-18T16:01:44.646Z,27.20
2018-08-18T16:04:12.058Z,27.30
2018-08-18T16:06:39.397Z,27.30
2018-08-18T16:09:08.998Z,27.20
2018-08-18T16:11:36.319Z,27.20
2018-08-18T16:14:03.708Z,27.20
2018-08-18T16:16:31.061Z,27.20
2018-08-18T16:19:03.997Z,27.20
2018-08-18T16:21:32.480Z,27.20
2018-08-18T16:24:00.210Z,27.20
2018-08-18T16:26:27.613Z,27.20
2018-08-18T16:28:54.949Z,27.20
2018-08-18T16:31:22.281Z,27.20
2018-08-18T16:33:50.296Z,27.20
2018-08-18T16:36:17.726Z,27.20
2018-08-18T16:38:45.034Z,27.20
2018-08-18T16:41:12.418Z,27.20
2018-08-18T16:43:39.769Z,27.20
2018-08-18T16:46:19.478Z,27.10
2018-08-18T16:48:47.413Z,27.10
2018-08-18T16:51:14.972Z,27.00
2018-08-18T16:53:42.487Z,27.00
2018-08-18T16:56:21.611Z,27.00
2018-08-18T16:58:52.037Z,27.10
2018-08-18T17:01:19.675Z,27.00
2018-08-18T17:03:47.827Z,27.00
2018-08-18T17:06:15.119Z,27.00
2018-08-18T17:08:42.535Z,27.00
2018-08-18T17:11:09.910Z,27.00
2018-08-18T17:13:38.035Z,27.00
2018-08-18T17:16:05.886Z,26.90
2018-08-18T17:18:33.338Z,26.90
2018-08-18T17:21:01.970Z,26.90
2018-08-18T17:23:31.109Z,26.80
2018-08-18T17:25:58.435Z,26.80
2018-08-18T17:28:26.374Z,26.70
2018-08-18T17:30:53.737Z,26.70
2018-08-18T17:33:23.223Z,26.70
2018-08-18T17:35:50.700Z,26.60
2018-08-18T17:38:19.095Z,26.60
2018-08-18T17:40:46.755Z,26.60
2018-08-18T17:43:14.154Z,26.50
2018-08-18T17:45:48.061Z,26.40
2018-08-18T17:48:15.534Z,26.30
2018-08-18T17:50:43.535Z,26.30
2018-08-18T17:53:10.879Z,26.30
2018-08-18T17:55:38.170Z,26.30
2018-08-18T17:58:05.517Z,26.20
2018-08-18T18:00:32.861Z,26.10
2018-08-18T18:03:01.229Z,26.00
2018-08-18T18:05:31.099Z,25.90
2018-08-18T18:08:02.420Z,25.90
2018-08-18T18:10:32.893Z,25.80
2018-08-18T18:13:00.450Z,25.80
2018-08-18T18:15:34.217Z,25.60
2018-08-18T18:18:01.526Z,25.60
2018-08-18T18:20:30.323Z,25.60
2018-08-18T18:22:57.641Z,25.50
2018-08-18T18:25:25.017Z,25.40
2018-08-18T18:27:52.358Z,25.30
2018-08-18T18:30:23.437Z,25.20
2018-08-18T18:32:50.761Z,25.10
2018-08-18T18:35:19.063Z,25.10
2018-08-18T18:37:46.438Z,24.90
2018-08-18T18:40:13.806Z,24.80
2018-08-18T18:42:41.141Z,24.70
2018-08-18T18:45:09.098Z,24.70
2018-08-18T18:47:36.436Z,24.60
2018-08-18T18:50:04.490Z,24.50
2018-08-18T18:52:31.821Z,24.40
2018-08-18T18:54:59.278Z,24.40
2018-08-18T18:57:26.606Z,24.30
2018-08-18T18:59:57.953Z,24.30
2018-08-18T19:02:34.815Z,24.20
2018-08-18T19:05:17.265Z,24.10
2018-08-18T19:07:46.592Z,24.00
2018-08-18T19:10:13.909Z,23.90
2018-08-18T19:12:41.193Z,23.90
2018-08-18T19:15:08.513Z,23.80
2018-08-18T19:17:35.930Z,23.70
2018-08-18T19:20:19.186Z,23.60
2018-08-18T19:22:46.490Z,23.50
2018-08-18T19:25:13.803Z,23.40
2018-08-18T19:27:41.096Z,23.40
2018-08-18T19:30:08.391Z,23.30
2018-08-18T19:32:35.758Z,23.20
2018-08-18T19:35:03.046Z,23.10
2018-08-18T19:37:32.408Z,23.00
2018-08-18T19:39:59.729Z,22.90
2018-08-18T19:42:27.071Z,22.90
2018-08-18T19:44:54.341Z,22.80
2018-08-18T19:47:30.156Z,22.70
2018-08-18T19:49:57.449Z,22.70
2018-08-18T19:52:24.797Z,22.60
2018-08-18T19:54:52.542Z,22.50
2018-08-18T19:57:26.130Z,22.40
2018-08-18T20:00:05.290Z,22.40
2018-08-18T20:02:54.986Z,22.40
2018-08-18T20:05:22.780Z,22.30
2018-08-18T20:07:50.678Z,22.30
2018-08-18T20:10:18.107Z,22.30
2018-08-18T20:12:45.538Z,22.20
2018-08-18T20:15:13.193Z,22.10
2018-08-18T20:17:41.089Z,22.00
2018-08-18T20:20:08.571Z,22.00
2018-08-18T20:22:35.945Z,21.90
2018-08-18T20:25:03.894Z,21.90
2018-08-18T20:27:31.566Z,21.90
2018-08-18T20:29:58.948Z,21.80
2018-08-18T20:32:26.301Z,21.70
2018-08-18T20:34:53.634Z,21.70
2018-08-18T20:37:20.974Z,21.60
2018-08-18T20:39:48.346Z,21.60
2018-08-18T20:42:15.817Z,21.50
2018-08-18T20:44:43.298Z,21.50
2018-08-18T20:47:10.642Z,21.40
2018-08-18T20:49:38.006Z,21.40
2018-08-18T20:52:05.504Z,21.30
2018-08-18T20:54:32.864Z,21.30
2018-08-18T20:57:00.209Z,21.40
2018-08-18T20:59:27.537Z,21.40
2018-08-18T21:01:54.866Z,21.30
2018-08-18T21:04:22.202Z,21.20
2018-08-18T21:06:49.539Z,21.10
2018-08-18T21:09:28.338Z,21.10
2018-08-18T21:11:55.713Z,21.00
2018-08-18T21:14:26.338Z,20.90
2018-08-18T21:16:53.936Z,20.80
2018-08-18T21:19:24.986Z,20.70
2018-08-18T21:21:53.764Z,20.70
2018-08-18T21:24:21.173Z,20.60
2018-08-18T21:26:48.604Z,20.60
2018-08-18T21:29:15.973Z,20.50
2018-08-18T21:31:46.731Z,20.40
2018-08-18T21:34:14.086Z,20.40
2018-08-18T21:36:41.461Z,20.30
2018-08-18T21:39:09.411Z,20.30
2018-08-18T21:41:38.002Z,20.30
2018-08-18T21:44:07.090Z,20.30
2018-08-18T21:46:34.477Z,20.20
2018-08-18T21:49:02.015Z,20.20
2018-08-18T21:51:29.366Z,20.20
2018-08-18T21:53:56.703Z,20.10
2018-08-18T21:56:24.046Z,20.10
2018-08-18T21:58:51.407Z,20.10
2018-08-18T22:01:20.930Z,20.00
2018-08-18T22:03:49.258Z,20.00
2018-08-18T22:06:16.665Z,20.00
2018-08-18T22:08:43.981Z,19.90
2018-08-18T22:11:16.242Z,19.90
2018-08-18T22:13:50.953Z,19.90
2018-08-18T22:16:18.325Z,19.90
2018-08-18T22:18:52.427Z,19.80
2018-08-18T22:21:23.675Z,19.90
2018-08-18T22:23:50.989Z,19.90
2018-08-18T22:26:21.521Z,19.90
2018-08-18T22:29:03.531Z,19.80
2018-08-18T22:31:31.457Z,19.70
2018-08-18T22:33:59.902Z,19.70
2018-08-18T22:36:32.043Z,19.80
2018-08-18T22:38:59.697Z,19.80
2018-08-18T22:41:27.052Z,19.80
2018-08-18T22:43:55.109Z,19.70
2018-08-18T22:46:22.543Z,19.70
2018-08-18T22:48:49.969Z,19.60
2018-08-18T22:51:17.641Z,19.50
2018-08-18T22:53:47.138Z,19.50
2018-08-18T22:56:14.483Z,19.40
2018-08-18T22:59:04.523Z,19.30
2018-08-18T23:01:32.810Z,19.30
2018-08-18T23:04:00.998Z,19.20
2018-08-18T23:06:30.058Z,19.10
2018-08-18T23:08:57.348Z,19.10
2018-08-18T23:11:24.645Z,19.10
2018-08-18T23:13:51.953Z,19.00
2018-08-18T23:16:19.272Z,19.00
2018-08-18T23:18:46.663Z,19.00
2018-08-18T23:21:19.530Z,18.90
2018-08-18T23:23:46.877Z,18.90
2018-08-18T23:26:14.166Z,18.90
2018-08-18T23:28:42.678Z,18.90
2018-08-18T23:31:10.045Z,18.90
2018-08-18T23:33:37.367Z,18.90
2018-08-18T23:36:04.825Z,18.90
2018-08-18T23:38:32.147Z,18.90
2018-08-18T23:41:04.026Z,18.90
2018-08-18T23:43:31.313Z,18.90
2018-08-18T23:45:58.634Z,18.90
2018-08-18T23:48:25.995Z,18.90
2018-08-18T23:50:53.393Z,18.90
2018-08-18T23:53:20.746Z,18.90
2018-08-18T23:56:04.897Z,18.90
2018-08-18T23:58:32.311Z,18.90
